Time;durP1;ratioP1;P1;durP2;ratioP2;P2;SDS_P1;SDS_P2;PMS_P1;PMS_P2;Temp;Humidity;BMP_temperature;BMP_pressure;BME280_temperature;BME280_humidity;BME280_pressure;Samples;Min_cycle;Max_cycle;Signal;HPM_P1;HPM_P2
2022/09/24 00:00:28;;;;;;;;;;;;;;;14.89;66.05;100850.53;5065145;28;20291;-72
2022/09/24 00:02:54;;;;;;;;;;;;;;;15.03;65.43;100846.00;5064429;28;19978;-73
2022/09/24 00:05:20;;;;;;;;;;;;;;;15.22;64.87;100848.22;5063777;28;20509;-73
2022/09/24 00:07:46;;;;;;;;;;;;;;;15.03;65.99;100834.59;5063679;28;19959;-73
2022/09/24 00:10:13;;;;;;;;;;;;;;;15.03;65.84;100837.25;5061527;28;19997;-73
2022/09/24 00:12:39;;;;;;;;;;;;;;;15.02;65.34;100839.03;5065279;28;19929;-73
2022/09/24 00:15:07;;;;;;;;;;;;;;;15.17;64.50;100829.22;5066193;28;19972;-73
2022/09/24 00:17:33;;;;;;;;;;;;;;;15.14;64.40;100832.06;5068458;28;19928;-73
2022/09/24 00:20:00;;;;;;;;;;;;;;;15.00;64.44;100830.34;5065286;28;20451;-72
2022/09/24 00:22:26;;;;;;;;;;;;;;;14.99;64.85;100830.47;5066779;28;19978;-72
2022/09/24 00:27:50;;;;;;;;;;;;;;;14.97;65.48;100822.66;5042333;28;19960;-72
2022/09/24 00:30:18;;;;;;;;;;;;;;;15.19;63.85;100814.09;5022480;28;20045;-72
2022/09/24 00:32:44;;;;;;;;;;;;;;;15.17;63.31;100820.44;5043658;28;19928;-73
2022/09/24 00:35:10;;;;;;;;;;;;;;;14.95;64.21;100810.50;5066220;28;20296;-73
2022/09/24 00:37:37;;;;;;;;;;;;;;;14.73;65.06;100805.84;5066408;28;19981;-73
2022/09/24 00:40:04;;;;;;;;;;;;;;;14.57;64.60;100816.59;5066588;28;20007;-73
2022/09/24 00:42:31;;;;;;;;;;;;;;;14.80;64.43;100806.28;5067149;28;19928;-73
2022/09/24 00:44:58;;;;;;;;;;;;;;;14.91;64.13;100809.03;5066521;28;19928;-73
2022/09/24 00:47:28;;;;;;;;;;;;;;;15.02;63.47;100802.06;5066293;28;20449;-73
2022/09/24 00:49:56;;;;;;;;;;;;;;;14.93;63.27;100805.31;5064998;28;19990;-73
2022/09/24 00:52:22;;;;;;;;;;;;;;;14.95;62.61;100795.50;5066404;28;19943;-73
2022/09/24 00:54:49;;;;;;;;;;;;;;;15.29;60.88;100798.44;5066704;28;19929;-73
2022/09/24 00:57:15;;;;;;;;;;;;;;;15.39;60.33;100797.69;5066118;28;19974;-73
2022/09/24 00:59:42;;;;;;;;;;;;;;;15.26;60.61;100799.50;5064741;28;20368;-73
2022/09/24 01:02:08;;;;;;;;;;;;;;;15.34;60.45;100799.81;5066981;28;19933;-72
2022/09/24 01:04:35;;;;;;;;;;;;;;;15.31;60.81;100802.66;5065740;28;19968;-72
2022/09/24 01:07:02;;;;;;;;;;;;;;;15.17;61.22;100799.31;5066012;28;19928;-72
2022/09/24 01:09:28;;;;;;;;;;;;;;;15.06;61.60;100789.50;5064486;28;19993;-73
2022/09/24 01:12:02;;;;;;;;;;;;;;;14.62;62.85;100803.09;5065785;28;19998;-73
2022/09/24 01:14:38;;;;;;;;;;;;;;;15.05;61.76;100801.84;5046836;28;19935;-73
2022/09/24 01:17:13;;;;;;;;;;;;;;;15.37;60.64;100810.16;5062245;28;20033;-73
2022/09/24 01:19:49;;;;;;;;;;;;;;;15.52;60.86;100806.47;5065397;28;19928;-73
2022/09/24 01:22:23;;;;;;;;;;;;;;;15.40;61.62;100804.69;5065246;28;19968;-73
2022/09/24 01:24:58;;;;;;;;;;;;;;;15.13;63.03;100798.66;5066367;28;19928;-73
2022/09/24 01:27:31;;;;;;;;;;;;;;;15.13;63.02;100803.94;5065426;28;19925;-73
2022/09/24 01:30:02;;;;;;;;;;;;;;;15.25;62.75;100803.09;5071735;28;20265;-73
2022/09/24 01:32:32;;;;;;;;;;;;;;;15.27;61.33;100802.97;5079912;28;19978;-74
2022/09/24 01:35:00;;;;;;;;;;;;;;;15.17;62.27;100797.50;5067996;28;19925;-73
2022/09/24 01:37:28;;;;;;;;;;;;;;;15.32;61.55;100796.44;5067785;28;19936;-73
2022/09/24 01:39:56;;;;;;;;;;;;;;;15.44;60.48;100792.94;5067467;28;19924;-73
2022/09/24 01:42:23;;;;;;;;;;;;;;;15.57;60.49;100791.13;5068109;28;20342;-73
2022/09/24 01:44:50;;;;;;;;;;;;;;;15.56;60.61;100783.31;5065201;28;19954;-73
2022/09/24 01:47:19;;;;;;;;;;;;;;;15.36;61.74;100787.34;5069306;28;19924;-73
2022/09/24 01:49:46;;;;;;;;;;;;;;;14.75;64.15;100787.25;5066709;28;19924;-72
2022/09/24 01:52:14;;;;;;;;;;;;;;;14.38;66.11;100795.00;5067071;28;20004;-72
2022/09/24 01:54:49;;;;;;;;;;;;;;;14.60;64.89;100789.97;5076121;28;19924;-72
2022/09/24 01:57:18;;;;;;;;;;;;;;;14.48;66.02;100789.97;5074004;28;20351;-72
2022/09/24 01:59:46;;;;;;;;;;;;;;;14.48;66.46;100796.09;5067257;28;20376;-72
2022/09/24 02:02:19;;;;;;;;;;;;;;;14.50;66.39;100799.47;5067443;28;20591;-72
2022/09/24 02:04:50;;;;;;;;;;;;;;;14.76;65.47;100788.94;5067739;28;19924;-73
2022/09/24 02:07:20;;;;;;;;;;;;;;;14.79;64.93;100789.59;5067924;28;19929;-73
2022/09/24 02:09:47;;;;;;;;;;;;;;;14.89;64.63;100781.91;5067457;28;19924;-72
2022/09/24 02:12:17;;;;;;;;;;;;;;;15.03;63.98;100784.44;5066186;28;19924;-73
2022/09/24 02:14:44;;;;;;;;;;;;;;;15.02;64.64;100778.28;5066818;28;20372;-72
2022/09/24 02:17:12;;;;;;;;;;;;;;;15.02;65.27;100785.38;5067217;28;19974;-72
2022/09/24 02:19:39;;;;;;;;;;;;;;;15.02;65.24;100783.56;5064287;28;20601;-73
2022/09/24 02:22:08;;;;;;;;;;;;;;;15.01;64.70;100784.50;5067103;28;19932;-73
2022/09/24 02:24:37;;;;;;;;;;;;;;;14.64;65.75;100790.63;5074086;28;19924;-72
2022/09/24 02:27:03;;;;;;;;;;;;;;;14.66;65.90;100786.09;5066520;28;19925;-72
2022/09/24 02:29:29;;;;;;;;;;;;;;;14.87;65.01;100778.50;5065280;28;19928;-72
2022/09/24 02:31:57;;;;;;;;;;;;;;;14.69;65.86;100787.69;5067407;28;20336;-72
2022/09/24 02:34:26;;;;;;;;;;;;;;;14.90;65.32;100775.66;5066405;28;19925;-72
2022/09/24 02:36:53;;;;;;;;;;;;;;;15.00;64.46;100768.78;5065512;28;19982;-72
2022/09/24 02:39:20;;;;;;;;;;;;;;;14.83;65.14;100764.66;5066407;28;19928;-72
2022/09/24 02:41:47;;;;;;;;;;;;;;;14.97;64.33;100771.63;5067627;28;19924;-72
2022/09/24 02:44:14;;;;;;;;;;;;;;;14.83;64.88;100759.38;5065016;28;19950;-72
2022/09/24 02:46:41;;;;;;;;;;;;;;;14.69;66.18;100766.56;5067679;28;19924;-72
2022/09/24 02:49:07;;;;;;;;;;;;;;;14.89;65.16;100766.06;5066064;28;19975;-72
2022/09/24 02:51:33;;;;;;;;;;;;;;;14.92;64.72;100765.84;5066793;28;19970;-72
2022/09/24 02:54:00;;;;;;;;;;;;;;;14.63;66.61;100773.94;5068286;28;20453;-72
2022/09/24 02:56:28;;;;;;;;;;;;;;;14.57;67.00;100769.09;5083340;28;19947;-73
2022/09/24 02:58:54;;;;;;;;;;;;;;;14.65;66.92;100760.66;5074823;28;19931;-73
2022/09/24 03:01:21;;;;;;;;;;;;;;;14.83;65.96;100754.09;5067179;28;19997;-73
2022/09/24 03:03:47;;;;;;;;;;;;;;;14.86;65.77;100760.97;5065441;28;19946;-73
2022/09/24 03:06:13;;;;;;;;;;;;;;;14.69;66.45;100753.38;5066533;28;20298;-73
2022/09/24 03:08:40;;;;;;;;;;;;;;;14.34;67.68;100761.88;5066426;28;19924;-73
2022/09/24 03:11:06;;;;;;;;;;;;;;;13.99;69.17;100763.34;5065919;28;20350;-73
2022/09/24 03:13:34;;;;;;;;;;;;;;;14.06;68.99;100767.25;5065234;28;20457;-73
2022/09/24 03:16:00;;;;;;;;;;;;;;;14.39;67.58;100762.41;5067783;28;19924;-73
2022/09/24 03:18:26;;;;;;;;;;;;;;;14.52;66.52;100755.34;5066143;28;19924;-73
2022/09/24 03:20:56;;;;;;;;;;;;;;;14.43;66.71;100750.72;5064448;28;19981;-74
2022/09/24 03:23:22;;;;;;;;;;;;;;;14.48;66.47;100753.03;5073914;28;19924;-74
2022/09/24 03:25:48;;;;;;;;;;;;;;;14.54;66.27;100756.09;5069731;28;20391;-73
2022/09/24 03:28:14;;;;;;;;;;;;;;;14.57;65.78;100747.13;5080207;28;19928;-73
2022/09/24 03:31:01;;;;;;;;;;;;;;;14.18;67.25;100748.00;5065817;28;19924;-73
2022/09/24 03:33:26;;;;;;;;;;;;;;;13.58;69.82;100760.72;5067983;28;20296;-75
2022/09/24 03:35:55;;;;;;;;;;;;;;;13.58;69.92;100758.94;5085681;28;19978;-75
2022/09/24 03:38:21;;;;;;;;;;;;;;;13.79;69.36;100755.84;5085875;28;19928;-74
2022/09/24 03:40:47;;;;;;;;;;;;;;;13.92;68.94;100760.25;5069754;28;19924;-74
2022/09/24 03:43:13;;;;;;;;;;;;;;;13.94;68.64;100768.91;5066656;28;19924;-73
2022/09/24 03:45:40;;;;;;;;;;;;;;;13.90;69.06;100762.13;5065474;28;19928;-73
2022/09/24 03:48:07;;;;;;;;;;;;;;;13.98;68.42;100759.00;5066141;28;19924;-74
2022/09/24 03:50:35;;;;;;;;;;;;;;;14.13;67.88;100753.56;5064531;28;19925;-73
2022/09/24 03:53:02;;;;;;;;;;;;;;;14.14;67.78;100749.13;5071344;28;19954;-74
2022/09/24 03:55:28;;;;;;;;;;;;;;;13.80;69.22;100745.22;5077813;28;19978;-73
2022/09/24 03:57:54;;;;;;;;;;;;;;;13.54;70.28;100746.91;5083760;28;20364;-74
2022/09/24 04:00:20;;;;;;;;;;;;;;;13.29;71.48;100743.28;5063658;28;19974;-74
2022/09/24 04:02:47;;;;;;;;;;;;;;;12.95;73.48;100741.84;5066281;28;20401;-74
2022/09/24 04:05:14;;;;;;;;;;;;;;;13.05;73.22;100732.44;5065115;28;19932;-74
2022/09/24 04:07:42;;;;;;;;;;;;;;;13.22;72.52;100737.56;5065424;28;19925;-74
2022/09/24 04:10:08;;;;;;;;;;;;;;;13.31;71.90;100742.25;5066139;28;19925;-74
2022/09/24 04:12:35;;;;;;;;;;;;;;;13.66;71.06;100740.00;5069848;28;19924;-75
2022/09/24 04:15:01;;;;;;;;;;;;;;;13.73;70.42;100735.19;5073808;28;19925;-74
2022/09/24 04:17:30;;;;;;;;;;;;;;;14.02;69.04;100726.22;5067192;28;20034;-74
2022/09/24 04:19:56;;;;;;;;;;;;;;;13.91;68.96;100728.72;5064308;28;19928;-74
2022/09/24 04:22:24;;;;;;;;;;;;;;;13.43;71.32;100733.56;5065118;28;19970;-75
2022/09/24 04:24:51;;;;;;;;;;;;;;;13.37;71.66;100731.34;5082195;28;19932;-74
2022/09/24 04:27:17;;;;;;;;;;;;;;;13.15;72.49;100731.81;5079523;28;19973;-74
2022/09/24 04:29:43;;;;;;;;;;;;;;;13.31;71.76;100726.44;5062205;28;19928;-74
2022/09/24 04:32:10;;;;;;;;;;;;;;;13.37;71.86;100723.44;5064790;28;20442;-74
2022/09/24 04:34:36;;;;;;;;;;;;;;;13.67;70.52;100731.16;5063448;28;20534;-74
2022/09/24 04:37:02;;;;;;;;;;;;;;;13.75;69.99;100717.47;5065130;28;19966;-74
2022/09/24 04:39:29;;;;;;;;;;;;;;;13.72;70.14;100723.78;5066896;28;19986;-74
2022/09/24 04:41:56;;;;;;;;;;;;;;;13.64;70.51;100719.00;5066128;28;20317;-73
2022/09/24 04:44:22;;;;;;;;;;;;;;;13.60;70.90;100717.53;5064067;28;20001;-75
2022/09/24 04:46:48;;;;;;;;;;;;;;;13.79;70.13;100721.59;5064416;28;20597;-75
2022/09/24 04:49:14;;;;;;;;;;;;;;;13.99;69.41;100713.25;5062533;28;20308;-75
2022/09/24 04:51:41;;;;;;;;;;;;;;;14.17;68.67;100705.88;5073825;28;19924;-75
2022/09/24 04:54:08;;;;;;;;;;;;;;;14.04;68.70;100716.44;5071086;28;19974;-75
2022/09/24 04:56:36;;;;;;;;;;;;;;;13.92;69.43;100714.59;5077784;28;19925;-76
2022/09/24 04:59:02;;;;;;;;;;;;;;;14.02;69.37;100718.31;5066861;28;19924;-75
2022/09/24 05:01:29;;;;;;;;;;;;;;;14.16;68.90;100718.22;5067472;28;20370;-75
2022/09/24 05:03:55;;;;;;;;;;;;;;;14.25;68.41;100714.13;5066933;28;20015;-75
2022/09/24 05:06:21;;;;;;;;;;;;;;;14.10;69.04;100726.56;5068083;28;19928;-75
2022/09/24 05:08:47;;;;;;;;;;;;;;;14.08;69.21;100726.66;5066291;28;19924;-75
2022/09/24 05:11:13;;;;;;;;;;;;;;;14.10;69.27;100732.69;5074067;28;19931;-77
2022/09/24 05:13:41;;;;;;;;;;;;;;;13.97;69.64;100734.41;5088231;28;19993;-76
2022/09/24 05:16:08;;;;;;;;;;;;;;;14.07;69.59;100742.59;5084902;28;19977;-76
2022/09/24 05:18:35;;;;;;;;;;;;;;;14.21;68.94;100734.59;5084142;28;20346;-76
2022/09/24 05:21:01;;;;;;;;;;;;;;;14.10;69.36;100731.84;5066930;28;20018;-75
2022/09/24 05:23:27;;;;;;;;;;;;;;;13.82;70.93;100742.50;5070839;28;20761;-75
2022/09/24 05:28:38;;;;;;;;;;;;;;;14.03;70.10;100739.31;5068374;28;19989;-75
2022/09/24 05:31:06;;;;;;;;;;;;;;;14.11;70.21;100738.81;5067387;28;20402;-76
2022/09/24 05:33:32;;;;;;;;;;;;;;;14.17;69.95;100732.25;5074362;28;19924;-75
2022/09/24 05:35:58;;;;;;;;;;;;;;;14.13;70.31;100742.16;5080361;28;19924;-75
2022/09/24 05:38:24;;;;;;;;;;;;;;;14.17;70.22;100737.53;5070270;28;19924;-75
2022/09/24 05:40:51;;;;;;;;;;;;;;;14.24;70.03;100739.66;5073891;28;19931;-76
2022/09/24 05:43:18;;;;;;;;;;;;;;;14.15;70.54;100740.28;5083882;28;20414;-75
2022/09/24 05:45:44;;;;;;;;;;;;;;;14.18;70.88;100741.88;5072931;28;19958;-75
2022/09/24 05:48:12;;;;;;;;;;;;;;;14.35;69.90;100741.63;5083159;28;19928;-75
2022/09/24 05:50:38;;;;;;;;;;;;;;;14.43;69.93;100748.06;5064722;28;19928;-75
2022/09/24 05:53:05;;;;;;;;;;;;;;;14.44;69.79;100746.28;5077977;28;19924;-75
2022/09/24 05:55:32;;;;;;;;;;;;;;;14.55;69.34;100749.88;5074339;28;19982;-75
2022/09/24 05:58:01;;;;;;;;;;;;;;;14.56;69.84;100753.34;5074977;28;19947;-75
2022/09/24 06:00:28;;;;;;;;;;;;;;;14.51;70.28;100745.75;5068009;28;19924;-75
2022/09/24 06:02:54;;;;;;;;;;;;;;;14.22;71.87;100757.41;5074230;28;19924;-75
2022/09/24 06:05:22;;;;;;;;;;;;;;;13.87;72.10;100762.34;5083331;28;20439;-75
2022/09/24 06:07:48;;;;;;;;;;;;;;;13.35;73.87;100754.28;5067580;28;20310;-75
2022/09/24 06:10:15;;;;;;;;;;;;;;;13.54;74.02;100751.31;5065171;28;20380;-75
2022/09/24 06:12:41;;;;;;;;;;;;;;;14.01;71.80;100756.16;5085098;28;19970;-75
2022/09/24 06:15:08;;;;;;;;;;;;;;;13.77;72.38;100749.84;5075523;28;20342;-76
2022/09/24 06:17:34;;;;;;;;;;;;;;;13.71;72.57;100752.91;5072801;28;19924;-75
2022/09/24 06:20:00;;;;;;;;;;;;;;;13.55;72.45;100751.25;5065448;28;19929;-75
2022/09/24 06:22:28;;;;;;;;;;;;;;;13.67;72.28;100760.16;5067577;28;19924;-76
2022/09/24 06:24:54;;;;;;;;;;;;;;;14.22;70.47;100759.19;5071667;28;20338;-76
2022/09/24 06:27:20;;;;;;;;;;;;;;;14.56;69.19;100753.34;5083291;28;19928;-76
2022/09/24 06:29:47;;;;;;;;;;;;;;;14.90;67.90;100755.38;5074759;28;19973;-76
2022/09/24 06:32:13;;;;;;;;;;;;;;;15.06;66.83;100757.81;5070366;28;20483;-76
2022/09/24 06:34:40;;;;;;;;;;;;;;;15.06;67.11;100749.88;5064796;28;19924;-76
2022/09/24 06:37:06;;;;;;;;;;;;;;;15.16;66.96;100756.19;5078015;28;19983;-75
2022/09/24 06:39:33;;;;;;;;;;;;;;;15.01;68.32;100765.19;5077535;28;19976;-75
2022/09/24 06:42:00;;;;;;;;;;;;;;;15.07;67.66;100762.13;5068314;28;19982;-75
2022/09/24 06:44:26;;;;;;;;;;;;;;;15.04;68.55;100767.59;5085078;28;19982;-75
2022/09/24 06:46:52;;;;;;;;;;;;;;;14.81;68.40;100760.47;5078267;28;20594;-75
2022/09/24 06:49:18;;;;;;;;;;;;;;;15.00;68.47;100766.16;5066253;28;19978;-75
2022/09/24 06:51:45;;;;;;;;;;;;;;;14.90;69.20;100765.94;5063663;28;20005;-75
2022/09/24 06:54:11;;;;;;;;;;;;;;;14.97;67.98;100767.19;5072228;28;19929;-75
2022/09/24 06:56:39;;;;;;;;;;;;;;;15.24;67.67;100772.34;5072976;28;20338;-75
2022/09/24 06:59:07;;;;;;;;;;;;;;;15.16;68.03;100777.31;5058216;28;20375;-75
2022/09/24 07:01:34;;;;;;;;;;;;;;;15.47;67.92;100782.16;5075572;28;19946;-75
2022/09/24 07:04:00;;;;;;;;;;;;;;;15.89;64.88;100782.69;5086497;28;20284;-76
2022/09/24 07:07:28;;;;;;;;;;;;;;;15.82;64.36;100782.25;5073886;28;20010;-76
2022/09/24 07:09:12;;;;;;;;;;;;;;;15.87;65.49;100784.59;5063693;28;19978;-75
2022/09/24 07:11:40;;;;;;;;;;;;;;;15.94;64.63;100775.25;5072144;28;19970;-75
2022/09/24 07:14:06;;;;;;;;;;;;;;;15.49;65.50;100779.41;5065234;28;20388;-75
2022/09/24 07:16:33;;;;;;;;;;;;;;;15.27;66.86;100787.13;5082509;28;20372;-75
2022/09/24 07:18:59;;;;;;;;;;;;;;;15.30;67.64;100785.13;5061766;28;19928;-76
2022/09/24 07:21:25;;;;;;;;;;;;;;;15.61;66.62;100772.41;5064255;28;20569;-76
2022/09/24 07:23:52;;;;;;;;;;;;;;;15.89;65.63;100778.22;5065681;28;19925;-76
2022/09/24 07:26:18;;;;;;;;;;;;;;;15.95;64.87;100777.78;5071280;28;19974;-76
2022/09/24 07:28:45;;;;;;;;;;;;;;;15.63;66.26;100781.91;5058537;28;19924;-76
2022/09/24 07:31:12;;;;;;;;;;;;;;;15.48;66.62;100777.72;5068689;28;20342;-76
2022/09/24 07:33:38;;;;;;;;;;;;;;;15.71;67.57;100776.91;5063600;28;19928;-75
2022/09/24 07:36:05;;;;;;;;;;;;;;;15.91;67.28;100778.97;5073392;28;19924;-75
2022/09/24 07:38:33;;;;;;;;;;;;;;;16.06;65.99;100779.66;5080875;28;19930;-76
2022/09/24 07:40:59;;;;;;;;;;;;;;;16.31;64.42;100762.78;5080899;28;20010;-76
2022/09/24 07:43:25;;;;;;;;;;;;;;;16.18;65.62;100781.38;5086014;28;19924;-76
2022/09/24 07:45:54;;;;;;;;;;;;;;;15.93;65.73;100779.69;5069246;28;19924;-76
2022/09/24 07:48:21;;;;;;;;;;;;;;;16.10;65.20;100775.81;5083835;28;20500;-76
2022/09/24 07:50:47;;;;;;;;;;;;;;;16.19;64.75;100779.56;5066857;28;19928;-76
2022/09/24 07:53:14;;;;;;;;;;;;;;;16.20;65.28;100782.09;5070351;28;20570;-76
2022/09/24 07:55:40;;;;;;;;;;;;;;;16.00;65.02;100777.47;5076280;28;19928;-75
2022/09/24 07:58:07;;;;;;;;;;;;;;;15.83;66.36;100778.69;5066238;28;20368;-75
2022/09/24 08:00:33;;;;;;;;;;;;;;;16.08;65.86;100775.06;5064949;28;19974;-75
2022/09/24 08:03:03;;;;;;;;;;;;;;;16.09;66.16;100779.41;5081007;28;20299;-75
2022/09/24 08:05:29;;;;;;;;;;;;;;;16.27;64.68;100775.41;5075463;28;19925;-75
2022/09/24 08:07:56;;;;;;;;;;;;;;;15.86;66.76;100785.53;5053490;28;19924;-75
2022/09/24 08:10:22;;;;;;;;;;;;;;;15.58;68.43;100784.06;5063260;28;19928;-74
2022/09/24 08:12:49;;;;;;;;;;;;;;;15.89;68.50;100782.69;5071729;28;19970;-74
2022/09/24 08:15:15;;;;;;;;;;;;;;;16.11;65.69;100785.44;5074907;28;19935;-74
2022/09/24 08:17:41;;;;;;;;;;;;;;;16.21;65.72;100778.50;5076496;28;19928;-75
2022/09/24 08:20:11;;;;;;;;;;;;;;;16.21;66.25;100788.25;5073352;28;19928;-73
2022/09/24 08:22:37;;;;;;;;;;;;;;;16.45;65.08;100781.94;5065084;28;19947;-75
2022/09/24 08:25:04;;;;;;;;;;;;;;;16.58;63.36;100791.66;5062908;28;19925;-75
2022/09/24 08:27:31;;;;;;;;;;;;;;;16.73;64.37;100794.00;5067684;28;19924;-75
2022/09/24 08:29:59;;;;;;;;;;;;;;;16.59;65.87;100793.34;5065720;28;19928;-75
2022/09/24 08:32:25;;;;;;;;;;;;;;;16.85;66.53;100787.72;5066496;28;19982;-75
2022/09/24 08:34:51;;;;;;;;;;;;;;;17.10;66.54;100784.06;5067217;28;20292;-75
2022/09/24 08:37:19;;;;;;;;;;;;;;;17.18;66.46;100786.94;5073673;28;19932;-75
2022/09/24 08:39:45;;;;;;;;;;;;;;;16.65;67.30;100791.06;5077590;28;20037;-75
2022/09/24 08:42:13;;;;;;;;;;;;;;;16.37;67.62;100783.50;5068994;28;19925;-74
2022/09/24 08:47:33;;;;;;;;;;;;;;;17.66;66.94;100789.34;5071412;28;20406;-74
2022/09/24 08:50:02;;;;;;;;;;;;;;;17.97;65.61;100785.88;5078748;28;20445;-75
2022/09/24 08:52:36;;;;;;;;;;;;;;;18.29;61.33;100797.34;5069163;28;19931;-75
2022/09/24 08:55:06;;;;;;;;;;;;;;;18.22;63.37;100795.31;5070164;28;19926;-75
2022/09/24 08:57:35;;;;;;;;;;;;;;;17.68;61.97;100795.38;5076679;28;19924;-74
2022/09/24 09:00:02;;;;;;;;;;;;;;;17.28;64.74;100789.72;5067940;28;20429;-75
2022/09/24 09:02:35;;;;;;;;;;;;;;;17.83;65.73;100791.47;5074734;28;19924;-75
2022/09/24 09:05:04;;;;;;;;;;;;;;;17.66;62.38;100797.31;5086829;28;19974;-75
2022/09/24 09:07:34;;;;;;;;;;;;;;;18.06;62.68;100801.06;5083825;28;19924;-76
2022/09/24 09:10:03;;;;;;;;;;;;;;;17.98;61.46;100803.50;5079861;28;20013;-75
2022/09/24 09:12:34;;;;;;;;;;;;;;;18.19;61.58;100806.19;5067252;28;19937;-74
2022/09/24 09:15:02;;;;;;;;;;;;;;;18.53;62.96;100799.81;5066914;28;19924;-76
2022/09/24 09:17:34;;;;;;;;;;;;;;;18.76;62.51;100800.53;5069729;28;19924;-72
2022/09/24 09:20:03;;;;;;;;;;;;;;;18.66;62.51;100799.63;5065681;28;20437;-73
2022/09/24 09:22:31;;;;;;;;;;;;;;;18.82;60.62;100797.34;5060568;28;19924;-73
2022/09/24 09:25:02;;;;;;;;;;;;;;;19.02;58.71;100804.47;5070366;28;19974;-73
2022/09/24 09:27:28;;;;;;;;;;;;;;;18.86;59.30;100804.09;5067652;28;19932;-73
2022/09/24 09:29:56;;;;;;;;;;;;;;;18.98;59.76;100805.72;5067261;28;20330;-73
2022/09/24 09:32:30;;;;;;;;;;;;;;;18.96;58.77;100802.31;5065238;28;20032;-73
2022/09/24 09:35:00;;;;;;;;;;;;;;;19.24;61.21;100806.97;5066797;28;19924;-73
2022/09/24 09:37:29;;;;;;;;;;;;;;;19.71;59.05;100804.63;5083442;28;19924;-73
2022/09/24 09:39:58;;;;;;;;;;;;;;;20.50;58.75;100797.47;5086685;28;19924;-73
2022/09/24 09:42:30;;;;;;;;;;;;;;;21.45;59.42;100790.22;5087422;28;20487;-73
2022/09/24 09:44:59;;;;;;;;;;;;;;;22.16;54.95;100799.22;5085634;28;19928;-71
2022/09/24 09:47:33;;;;;;;;;;;;;;;22.32;51.74;100794.03;5080888;28;19989;-72
2022/09/24 09:50:04;;;;;;;;;;;;;;;22.97;53.36;100791.91;5064889;28;19932;-72
2022/09/24 09:52:34;;;;;;;;;;;;;;;23.24;47.59;100792.53;5066729;28;19977;-72
2022/09/24 09:55:04;;;;;;;;;;;;;;;22.74;48.25;100802.25;5067694;28;19924;-71
2022/09/24 09:57:34;;;;;;;;;;;;;;;22.97;47.47;100800.75;5065161;28;19935;-71
2022/09/24 10:00:01;;;;;;;;;;;;;;;23.26;48.95;100795.91;5065066;28;19924;-72
2022/09/24 10:02:30;;;;;;;;;;;;;;;22.38;47.35;100796.09;5071214;28;20416;-72
2022/09/24 10:04:57;;;;;;;;;;;;;;;22.03;47.11;100802.25;5065606;28;20362;-72
2022/09/24 10:07:24;;;;;;;;;;;;;;;22.07;47.59;100797.47;5061022;28;19928;-72
2022/09/24 10:09:58;;;;;;;;;;;;;;;22.31;46.22;100800.38;5066537;28;19924;-71
2022/09/24 10:12:25;;;;;;;;;;;;;;;22.17;48.80;100799.06;5069049;28;19925;-72
2022/09/24 10:14:58;;;;;;;;;;;;;;;22.23;50.09;100798.47;5071637;28;19930;-72
2022/09/24 10:17:26;;;;;;;;;;;;;;;21.95;51.55;100801.34;5085220;28;19932;-72
2022/09/24 10:19:53;;;;;;;;;;;;;;;21.92;49.87;100793.63;5078065;28;19924;-72
2022/09/24 10:22:21;;;;;;;;;;;;;;;21.92;48.23;100799.81;5068906;28;19924;-72
2022/09/24 10:24:48;;;;;;;;;;;;;;;22.37;49.69;100798.91;5064663;28;19946;-72
2022/09/24 10:27:21;;;;;;;;;;;;;;;21.79;48.75;100800.16;5066841;28;19928;-72
2022/09/24 10:32:32;;;;;;;;;;;;;;;21.90;46.24;100795.59;5066902;28;19931;-72
2022/09/24 10:35:00;;;;;;;;;;;;;;;22.07;45.03;100795.63;5067241;28;19929;-72
2022/09/24 10:37:26;;;;;;;;;;;;;;;22.17;47.44;100798.25;5067070;28;19924;-72
2022/09/24 10:39:59;;;;;;;;;;;;;;;21.90;45.03;100795.59;5065522;28;20416;-72
2022/09/24 10:42:26;;;;;;;;;;;;;;;22.52;45.18;100782.19;5064684;28;20358;-72
2022/09/24 10:44:53;;;;;;;;;;;;;;;22.59;47.66;100777.91;5057014;28;19924;-72
2022/09/24 10:47:25;;;;;;;;;;;;;;;22.20;46.09;100781.91;5045254;28;20348;-72
2022/09/24 10:49:58;;;;;;;;;;;;;;;21.91;45.18;100782.13;5050955;28;19974;-72
2022/09/24 10:52:35;;;;;;;;;;;;;;;21.72;47.96;100782.22;5065115;28;19925;-72
2022/09/24 10:55:07;;;;;;;;;;;;;;;22.17;44.12;100777.69;5065799;28;19931;-72
2022/09/24 10:57:38;;;;;;;;;;;;;;;22.15;47.61;100781.53;5062661;28;20387;-72
2022/09/24 11:00:08;;;;;;;;;;;;;;;22.15;49.72;100781.53;5064043;28;19924;-73
2022/09/24 11:02:53;;;;;;;;;;;;;;;22.20;45.33;100782.75;5064088;28;20338;-72
2022/09/24 11:05:21;;;;;;;;;;;;;;;22.25;45.49;100783.13;5063994;28;19931;-72
2022/09/24 11:07:56;;;;;;;;;;;;;;;22.21;48.17;100775.56;5063844;28;19924;-72
2022/09/24 11:10:30;;;;;;;;;;;;;;;22.04;47.40;100771.91;5063873;28;19928;-72
2022/09/24 11:13:02;;;;;;;;;;;;;;;21.90;44.68;100784.91;5063780;28;19974;-72
2022/09/24 11:15:41;;;;;;;;;;;;;;;21.20;48.49;100775.75;5065244;28;19925;-72
2022/09/24 11:18:18;;;;;;;;;;;;;;;21.79;47.53;100780.63;5065931;28;20334;-72
2022/09/24 11:20:50;;;;;;;;;;;;;;;21.83;45.83;100780.19;5064875;28;19934;-72
2022/09/24 11:23:39;;;;;;;;;;;;;;;22.61;49.32;100783.09;5065921;28;20434;-72
2022/09/24 11:26:12;;;;;;;;;;;;;;;22.88;45.59;100772.28;5065274;28;19977;-72
2022/09/24 11:29:03;;;;;;;;;;;;;;;23.14;43.43;100765.09;5055433;28;19924;-72
2022/09/24 11:31:34;;;;;;;;;;;;;;;23.59;46.59;100762.13;5039436;28;20265;-73
2022/09/24 11:34:09;;;;;;;;;;;;;;;23.74;42.49;100756.97;5063506;28;19933;-72
2022/09/24 11:36:42;;;;;;;;;;;;;;;24.12;42.84;100761.75;5065215;28;19998;-72
2022/09/24 11:39:17;;;;;;;;;;;;;;;24.64;44.21;100766.81;5064811;28;20350;-72
2022/09/24 11:41:49;;;;;;;;;;;;;;;24.61;39.25;100759.09;5061936;28;19980;-72
2022/09/24 11:44:28;;;;;;;;;;;;;;;24.40;41.50;100762.28;5047483;28;19937;-72
2022/09/24 11:47:01;;;;;;;;;;;;;;;24.76;42.07;100765.44;5044565;28;19925;-73
2022/09/24 11:49:35;;;;;;;;;;;;;;;25.03;41.46;100759.72;5049617;28;20515;-73
2022/09/24 11:52:06;;;;;;;;;;;;;;;24.59;39.71;100761.94;5060244;28;19935;-73
2022/09/24 11:54:35;;;;;;;;;;;;;;;24.83;40.52;100765.63;5064258;28;20338;-73
2022/09/24 11:57:06;;;;;;;;;;;;;;;25.25;41.26;100757.28;5064048;28;19970;-73
2022/09/24 11:59:35;;;;;;;;;;;;;;;25.27;40.38;100755.28;5063301;28;19924;-73
2022/09/24 12:02:06;;;;;;;;;;;;;;;25.74;39.65;100753.41;5064946;28;19993;-70
2022/09/24 12:04:41;;;;;;;;;;;;;;;25.90;36.82;100753.31;5062437;28;20296;-69
2022/09/24 12:07:12;;;;;;;;;;;;;;;25.84;36.61;100747.78;5059160;28;19993;-69
2022/09/24 12:09:40;;;;;;;;;;;;;;;25.53;36.72;100751.34;5064695;28;20519;-68
2022/09/24 12:12:08;;;;;;;;;;;;;;;25.85;36.44;100752.16;5068703;28;19924;-68
2022/09/24 12:14:42;;;;;;;;;;;;;;;25.94;38.63;100745.75;5067614;28;19937;-68
2022/09/24 12:17:14;;;;;;;;;;;;;;;25.28;34.31;100738.16;5059911;28;20384;-68
2022/09/24 12:19:46;;;;;;;;;;;;;;;25.00;36.26;100738.59;5052870;28;19960;-68
2022/09/24 12:22:14;;;;;;;;;;;;;;;25.22;37.72;100742.38;5071793;28;19924;-68
2022/09/24 12:24:43;;;;;;;;;;;;;;;25.24;37.43;100744.91;5068158;28;19994;-69
2022/09/24 12:27:12;;;;;;;;;;;;;;;25.43;35.41;100736.41;5066960;28;19925;-69
2022/09/24 12:35:19;;;;;;;;;;;;;;;25.00;36.16;100727.88;5049409;28;20387;-70
2022/09/24 12:37:48;;;;;;;;;;;;;;;25.28;36.70;100727.41;5047538;28;19925;-70
2022/09/24 12:40:21;;;;;;;;;;;;;;;25.05;35.49;100727.38;5056902;28;19925;-69
2022/09/24 12:42:49;;;;;;;;;;;;;;;24.86;35.38;100723.22;5067275;28;19925;-69
2022/09/24 12:45:18;;;;;;;;;;;;;;;25.17;37.51;100723.28;5068342;28;19929;-69
2022/09/24 12:47:46;;;;;;;;;;;;;;;25.37;37.87;100721.84;5067534;28;20025;-69
2022/09/24 12:50:19;;;;;;;;;;;;;;;25.71;34.87;100721.53;5067364;28;19924;-69
2022/09/24 12:52:47;;;;;;;;;;;;;;;25.82;36.66;100725.66;5065942;28;19955;-69
2022/09/24 12:55:19;;;;;;;;;;;;;;;26.25;35.48;100724.19;5068707;28;19994;-69
2022/09/24 12:57:50;;;;;;;;;;;;;;;26.55;35.37;100709.81;5068801;28;19925;-69